Time;durP1;ratioP1;P1;durP2;ratioP2;P2;SDS_P1;SDS_P2;PMS_P1;PMS_P2;Temp;Humidity;BMP_temperature;BMP_pressure;BME280_temperature;BME280_humidity;BME280_pressure;Samples;Min_cycle;Max_cycle;Signal;HPM_P1;HPM_P2
2021/09/09 00:00:07;;;;;;;9.45;5.85;;;;;;;15.35;69.36;99607.59;5113994;28;20028;-70
2021/09/09 00:02:32;;;;;;;8.95;5.68;;;;;;;15.31;69.45;99598.97;5112664;28;20410;-67
2021/09/09 00:04:57;;;;;;;7.70;5.68;;;;;;;15.36;69.50;99607.44;5122285;27;20110;-68
2021/09/09 00:07:23;;;;;;;8.80;5.70;;;;;;;15.35;69.54;99592.25;5133236;27;20031;-68
2021/09/09 00:09:49;;;;;;;9.25;6.20;;;;;;;15.34;69.58;99601.34;5134192;27;20035;-68
2021/09/09 00:12:14;;;;;;;9.65;5.88;;;;;;;15.37;69.84;99605.59;5134740;27;20035;-67
2021/09/09 00:14:40;;;;;;;8.52;5.50;;;;;;;15.33;69.56;99580.78;5132988;27;20035;-68
2021/09/09 00:17:05;;;;;;;6.97;5.13;;;;;;;15.29;69.74;99584.81;5113479;28;20043;-68
2021/09/09 00:19:31;;;;;;;10.48;6.40;;;;;;;15.29;69.70;99595.59;5113709;28;20453;-67
2021/09/09 00:21:56;;;;;;;9.00;5.35;;;;;;;15.21;69.74;99588.31;5112670;28;20030;-68
2021/09/09 00:24:22;;;;;;;8.02;5.68;;;;;;;15.22;69.83;99599.94;5113986;28;20035;-67
2021/09/09 00:26:47;;;;;;;8.90;5.43;;;;;;;15.21;69.80;99609.88;5114367;27;20044;-68
2021/09/09 00:29:13;;;;;;;8.07;5.72;;;;;;;14.98;70.26;99577.22;5112157;28;20040;-68
2021/09/09 00:31:39;;;;;;;10.65;5.65;;;;;;;15.19;69.99;99597.56;5113686;28;20063;-68
2021/09/09 00:34:04;;;;;;;8.10;5.90;;;;;;;15.16;70.09;99598.72;5112586;28;20469;-67
2021/09/09 00:36:36;;;;;;;7.57;6.00;;;;;;;15.15;69.98;99593.47;5114156;27;20510;-67
2021/09/09 00:39:01;;;;;;;8.07;5.43;;;;;;;14.89;70.02;99560.16;5113004;28;20042;-67
2021/09/09 00:41:30;;;;;;;8.68;5.70;;;;;;;15.08;70.37;99593.31;5112929;28;20414;-68
2021/09/09 00:43:57;;;;;;;8.77;5.50;;;;;;;14.99;70.49;99596.94;5133504;27;20078;-67
2021/09/09 00:46:23;;;;;;;7.97;5.68;;;;;;;14.89;70.75;99592.50;5130160;27;20045;-68
2021/09/09 00:48:49;;;;;;;7.38;5.65;;;;;;;14.85;70.86;99599.22;5133409;27;20031;-67
2021/09/09 00:51:15;;;;;;;9.55;6.15;;;;;;;14.80;70.92;99595.28;5132892;27;20110;-67
2021/09/09 00:53:42;;;;;;;8.65;6.10;;;;;;;14.70;71.13;99584.56;5132792;27;20482;-67
2021/09/09 00:56:08;;;;;;;8.38;5.35;;;;;;;14.61;71.45;99580.97;5132147;27;20483;-67
2021/09/09 00:58:36;;;;;;;8.55;5.75;;;;;;;14.58;71.62;99592.06;5130544;27;20029;-68
2021/09/09 01:01:02;;;;;;;9.60;6.22;;;;;;;14.47;71.98;99577.84;5132310;27;20361;-68
2021/09/09 01:03:27;;;;;;;9.60;5.40;;;;;;;14.44;71.90;99578.13;5133745;27;20494;-67
2021/09/09 01:05:53;;;;;;;10.32;5.85;;;;;;;14.36;72.14;99583.44;5133624;27;20031;-68
2021/09/09 01:08:19;;;;;;;8.38;5.80;;;;;;;13.99;71.76;99517.16;5131295;27;20474;-68
2021/09/09 01:10:44;;;;;;;9.73;5.63;;;;;;;14.29;72.25;99564.34;5115489;27;20422;-67
2021/09/09 01:13:10;;;;;;;10.32;5.90;;;;;;;14.30;72.25;99576.00;5134368;27;20031;-68
2021/09/09 01:15:54;;;;;;;8.15;6.10;;;;;;;14.39;72.32;99580.44;5133053;27;20039;-68
2021/09/09 01:18:19;;;;;;;6.00;5.05;;;;;;;14.18;72.45;99562.75;5131404;27;20015;-67
2021/09/09 01:20:47;;;;;;;7.60;5.55;;;;;;;14.03;72.53;99551.66;5131810;27;20038;-68
2021/09/09 01:23:12;;;;;;;7.75;5.60;;;;;;;14.11;72.99;99561.69;5133257;27;20107;-67
2021/09/09 01:25:38;;;;;;;9.48;6.28;;;;;;;14.11;73.11;99567.06;5131799;27;20145;-67
2021/09/09 01:28:04;;;;;;;8.00;5.68;;;;;;;14.12;72.98;99571.44;5131119;27;20059;-68
2021/09/09 01:30:30;;;;;;;7.40;5.25;;;;;;;14.07;73.05;99563.00;5130464;27;20054;-68
2021/09/09 01:32:55;;;;;;;7.68;5.50;;;;;;;14.05;73.33;99555.06;5132593;27;20024;-67
2021/09/09 01:35:21;;;;;;;7.18;5.35;;;;;;;14.06;73.17;99562.13;5132706;27;20039;-69
2021/09/09 01:37:46;;;;;;;7.47;5.53;;;;;;;13.99;73.05;99541.38;5131623;27;20079;-67
2021/09/09 01:40:12;;;;;;;7.55;5.70;;;;;;;14.18;72.73;99564.59;5130683;27;20084;-67
2021/09/09 01:42:38;;;;;;;8.88;5.82;;;;;;;13.99;72.54;99517.16;5119042;27;20525;-67
2021/09/09 01:45:04;;;;;;;7.85;6.00;;;;;;;14.28;72.59;99569.91;5110865;28;20038;-67
2021/09/09 01:47:29;;;;;;;9.18;5.65;;;;;;;14.31;72.34;99559.66;5111864;28;20031;-66
2021/09/09 01:49:55;;;;;;;8.27;5.65;;;;;;;14.37;72.19;99560.06;5113031;27;20500;-67
2021/09/09 01:52:20;;;;;;;8.95;5.82;;;;;;;14.41;72.23;99562.28;5110661;27;20156;-66
2021/09/09 01:54:46;;;;;;;8.30;5.60;;;;;;;14.38;71.82;99546.44;5111790;28;20114;-66
2021/09/09 01:57:11;;;;;;;6.68;5.22;;;;;;;14.48;71.51;99557.13;5076428;28;20035;-67
2021/09/09 01:59:37;;;;;;;11.57;5.82;;;;;;;14.53;71.69;99560.19;5113290;27;20103;-67
2021/09/09 02:02:02;;;;;;;10.48;5.85;;;;;;;14.50;71.57;99555.97;5111909;28;20039;-67
2021/09/09 02:04:29;;;;;;;10.95;5.40;;;;;;;14.47;71.37;99550.03;5110129;28;20547;-67
2021/09/09 02:06:56;;;;;;;6.95;5.15;;;;;;;14.49;71.59;99564.19;5111580;28;20856;-67
2021/09/09 02:09:22;;;;;;;8.35;5.47;;;;;;;14.48;71.67;99557.13;5111988;28;20059;-67
2021/09/09 02:11:47;;;;;;;11.02;5.55;;;;;;;14.48;71.76;99552.59;5111815;27;20110;-66
2021/09/09 02:14:13;;;;;;;7.80;5.20;;;;;;;14.52;71.54;99554.97;5109884;28;20457;-67
2021/09/09 02:16:38;;;;;;;9.55;5.50;;;;;;;14.58;71.39;99559.72;5093004;28;20042;-67
2021/09/09 02:19:04;;;;;;;8.85;5.40;;;;;;;14.61;71.28;99554.00;5111909;28;20034;-67
2021/09/09 02:21:30;;;;;;;9.00;5.40;;;;;;;14.63;71.01;99560.09;5110747;28;20469;-67
2021/09/09 02:23:55;;;;;;;10.07;5.53;;;;;;;14.70;70.81;99555.75;5110971;28;20381;-67
2021/09/09 02:26:21;;;;;;;9.32;5.60;;;;;;;14.74;70.66;99553.63;5109874;28;20044;-66
2021/09/09 02:28:46;;;;;;;9.25;5.47;;;;;;;14.80;70.57;99552.16;5111959;28;20043;-67
2021/09/09 02:31:12;;;;;;;10.38;5.70;;;;;;;14.84;70.26;99553.53;5112315;28;20027;-66
2021/09/09 02:33:38;;;;;;;7.63;5.22;;;;;;;14.87;70.19;99555.91;5109865;28;20837;-66
2021/09/09 02:36:03;;;;;;;8.60;5.18;;;;;;;14.84;69.94;99543.63;5110122;28;20059;-67
2021/09/09 02:38:29;;;;;;;10.30;5.95;;;;;;;14.84;69.54;99534.66;5093107;28;20108;-66
2021/09/09 02:40:54;;;;;;;9.65;5.53;;;;;;;14.94;69.66;99554.25;5111594;28;20034;-65
2021/09/09 02:43:20;;;;;;;10.00;5.13;;;;;;;14.96;69.71;99540.63;5110416;28;20038;-65
2021/09/09 02:45:45;;;;;;;8.95;5.38;;;;;;;14.98;69.82;99538.63;5111465;28;20027;-68
2021/09/09 02:48:11;;;;;;;9.80;5.55;;;;;;;14.99;69.68;99535.78;5111493;28;20487;-67
2021/09/09 02:50:36;;;;;;;8.25;5.55;;;;;;;15.04;69.21;99541.53;5111387;28;20036;-67
2021/09/09 02:53:02;;;;;;;6.20;5.00;;;;;;;15.07;69.35;99538.50;5110657;28;20019;-65
2021/09/09 02:55:27;;;;;;;7.28;4.90;;;;;;;15.07;69.18;99541.22;5110910;28;20027;-66
2021/09/09 02:57:53;;;;;;;9.95;5.07;;;;;;;15.09;69.14;99540.19;5114984;28;20106;-65
2021/09/09 03:00:19;;;;;;;12.35;5.70;;;;;;;15.14;68.76;99549.50;5121656;28;20069;-65
2021/09/09 03:02:44;;;;;;;11.75;5.20;;;;;;;15.15;68.74;99545.81;5120934;27;20027;-67
2021/09/09 03:05:11;;;;;;;10.18;4.78;;;;;;;15.16;68.94;99541.25;5132043;27;20092;-66
2021/09/09 03:07:36;;;;;;;9.95;5.20;;;;;;;15.02;68.59;99504.94;5136084;27;20486;-66
2021/09/09 03:10:03;;;;;;;7.90;5.15;;;;;;;15.22;68.52;99540.63;5134503;27;20110;-66
2021/09/09 03:12:28;;;;;;;7.60;5.18;;;;;;;15.16;68.59;99525.06;5134467;27;20019;-67
2021/09/09 03:14:54;;;;;;;8.25;5.20;;;;;;;15.29;68.07;99535.41;5133817;27;20350;-65
2021/09/09 03:17:20;;;;;;;9.07;5.13;;;;;;;15.33;68.22;99542.19;5133615;27;20511;-65
2021/09/09 03:19:46;;;;;;;8.40;4.93;;;;;;;15.35;68.24;99545.56;5134653;27;20031;-66
2021/09/09 03:22:11;;;;;;;9.77;5.00;;;;;;;15.18;67.77;99512.25;5135263;27;20023;-66
2021/09/09 03:24:37;;;;;;;6.60;4.88;;;;;;;15.46;67.62;99549.84;5133009;27;20119;-66
2021/09/09 03:27:03;;;;;;;8.82;5.47;;;;;;;15.43;67.79;99545.59;5134571;27;20130;-66
2021/09/09 03:29:28;;;;;;;10.00;5.50;;;;;;;15.44;67.59;99547.28;5134902;27;20069;-66
2021/09/09 03:31:55;;;;;;;7.07;5.07;;;;;;;15.49;67.60;99553.03;5133635;27;20054;-66
2021/09/09 03:34:20;;;;;;;10.20;5.25;;;;;;;15.53;67.50;99553.56;5135009;27;20039;-66
2021/09/09 03:36:46;;;;;;;7.70;5.25;;;;;;;15.43;67.42;99532.09;5116953;27;20437;-66
2021/09/09 03:39:11;;;;;;;8.27;5.03;;;;;;;15.58;67.38;99556.59;5114719;28;20112;-66
2021/09/09 03:41:37;;;;;;;10.75;5.68;;;;;;;15.60;67.20;99543.78;5114537;28;20027;-66
2021/09/09 03:44:03;;;;;;;7.78;5.35;;;;;;;15.70;67.06;99559.84;5112990;28;20477;-66
2021/09/09 03:46:29;;;;;;;8.23;4.95;;;;;;;15.72;66.79;99559.69;5115262;27;20065;-67
2021/09/09 03:48:54;;;;;;;11.73;5.68;;;;;;;15.49;66.84;99512.56;5115085;27;20028;-67
2021/09/09 03:51:19;;;;;;;8.32;5.20;;;;;;;15.77;66.50;99562.75;5125304;27;20031;-66
2021/09/09 03:53:45;;;;;;;7.53;4.88;;;;;;;15.75;66.72;99557.50;5134825;27;20027;-67
2021/09/09 03:56:10;;;;;;;6.55;4.85;;;;;;;15.74;66.73;99560.38;5133004;27;20031;-66
2021/09/09 03:58:36;;;;;;;5.97;4.57;;;;;;;15.73;66.66;99564.91;5131979;27;20038;-66
2021/09/09 04:01:01;;;;;;;8.02;5.53;;;;;;;15.72;66.90;99565.94;5131916;27;20038;-66
2021/09/09 04:03:27;;;;;;;9.25;4.85;;;;;;;15.73;66.98;99564.91;5134601;27;20050;-65
2021/09/09 04:05:52;;;;;;;6.50;4.47;;;;;;;15.73;66.86;99569.47;5116274;27;20122;-66
2021/09/09 04:08:18;;;;;;;7.30;4.72;;;;;;;15.76;66.72;99574.56;5132424;27;20114;-66
2021/09/09 04:10:43;;;;;;;9.00;5.25;;;;;;;15.75;66.73;99568.28;5134087;27;20087;-67
2021/09/09 04:13:08;;;;;;;8.35;5.55;;;;;;;15.84;66.56;99579.13;5134564;27;20039;-66
2021/09/09 04:15:34;;;;;;;9.30;5.20;;;;;;;15.82;66.23;99573.88;5134250;27;20067;-66
2021/09/09 04:18:00;;;;;;;7.63;5.05;;;;;;;15.85;66.31;99578.13;5132150;27;20031;-66
2021/09/09 04:20:25;;;;;;;7.20;5.15;;;;;;;15.89;66.13;99590.31;5133540;27;20031;-65
2021/09/09 04:22:51;;;;;;;6.30;5.15;;;;;;;15.74;66.22;99560.38;5134522;27;20114;-67
2021/09/09 04:25:16;;;;;;;8.95;5.15;;;;;;;15.92;66.49;99582.75;5134048;27;20488;-66
2021/09/09 04:27:42;;;;;;;6.97;4.68;;;;;;;15.97;66.15;99586.78;5132033;27;20039;-66
2021/09/09 04:30:08;;;;;;;10.70;4.93;;;;;;;15.97;65.74;99589.50;5133919;27;20142;-66
2021/09/09 04:32:34;;;;;;;6.93;5.30;;;;;;;16.01;66.17;99591.69;5114703;27;20028;-66
2021/09/09 04:34:59;;;;;;;8.43;5.20;;;;;;;15.98;65.97;99583.09;5134236;27;20027;-66
2021/09/09 04:37:25;;;;;;;7.60;5.18;;;;;;;16.02;65.79;99595.25;5133591;27;20023;-67
2021/09/09 04:39:50;;;;;;;6.65;5.18;;;;;;;15.98;65.97;99593.88;5132041;27;20031;-66
2021/09/09 04:42:16;;;;;;;9.63;5.30;;;;;;;15.98;66.15;99596.59;5122668;27;20035;-67
2021/09/09 04:44:41;;;;;;;11.43;5.68;;;;;;;15.97;66.21;99597.59;5113442;28;20190;-66
2021/09/09 04:47:07;;;;;;;7.15;5.55;;;;;;;15.97;66.33;99597.59;5120289;27;20031;-67
2021/09/09 04:49:32;;;;;;;7.68;5.30;;;;;;;16.00;66.13;99592.69;5131972;27;20046;-67
2021/09/09 04:51:58;;;;;;;7.43;4.97;;;;;;;16.03;66.27;99599.63;5132697;27;20027;-66
2021/09/09 04:54:24;;;;;;;7.05;5.25;;;;;;;16.01;66.16;99588.97;5132495;27;20027;-67
2021/09/09 04:56:50;;;;;;;7.88;5.35;;;;;;;16.03;66.14;99588.81;5133333;27;20027;-67
2021/09/09 04:59:15;;;;;;;7.40;5.00;;;;;;;16.02;66.14;99579.03;5129009;27;20130;-65
2021/09/09 05:01:41;;;;;;;6.55;5.32;;;;;;;16.03;66.06;99591.53;5112818;27;20380;-66
2021/09/09 05:04:06;;;;;;;9.35;5.65;;;;;;;16.00;66.02;99581.06;5112523;28;20031;-65
2021/09/09 05:06:32;;;;;;;9.68;5.32;;;;;;;15.93;66.05;99554.72;5112735;28;20055;-65
2021/09/09 05:08:57;;;;;;;7.03;5.10;;;;;;;16.15;65.67;99579.38;5112208;28;20031;-66
2021/09/09 05:11:23;;;;;;;8.13;5.35;;;;;;;16.16;65.70;99577.53;5129525;27;20091;-66
2021/09/09 05:13:48;;;;;;;8.32;5.55;;;;;;;16.21;65.93;99588.69;5131348;27;20541;-66
2021/09/09 05:16:14;;;;;;;6.72;5.18;;;;;;;16.23;65.65;99589.34;5131305;27;20027;-68
2021/09/09 05:18:39;;;;;;;10.00;4.93;;;;;;;16.25;65.86;99589.22;5132774;27;20072;-66
2021/09/09 05:21:05;;;;;;;8.73;5.13;;;;;;;16.23;65.40;99591.22;5103330;28;20032;-66
2021/09/09 05:23:31;;;;;;;6.95;4.78;;;;;;;16.26;65.83;99591.72;5112017;28;20142;-66
2021/09/09 05:25:56;;;;;;;9.07;4.70;;;;;;;16.29;65.36;99585.16;5125938;27;20126;-65
2021/09/09 05:28:22;;;;;;;8.77;5.40;;;;;;;16.36;65.28;99589.72;5132444;27;20469;-66
2021/09/09 05:30:47;;;;;;;7.55;5.13;;;;;;;16.37;65.48;99587.84;5128904;27;20480;-67
2021/09/09 05:33:13;;;;;;;8.40;5.10;;;;;;;16.42;65.38;99596.31;5111943;28;20020;-67
2021/09/09 05:35:46;;;;;;;10.15;5.97;;;;;;;16.40;64.81;99590.25;5112271;28;20076;-66
2021/09/09 05:38:13;;;;;;;9.07;5.10;;;;;;;16.49;64.92;99591.94;5111594;28;20035;-67
2021/09/09 05:40:39;;;;;;;8.43;5.18;;;;;;;16.43;64.82;99573.69;5110310;28;20110;-66
2021/09/09 05:43:04;;;;;;;6.30;5.05;;;;;;;16.53;64.76;99586.19;5112680;27;20088;-67
2021/09/09 05:45:30;;;;;;;11.52;4.88;;;;;;;16.59;64.92;99586.34;5111780;28;20111;-67
2021/09/09 05:47:56;;;;;;;6.18;5.00;;;;;;;16.58;64.70;99581.97;5111520;28;20034;-66
2021/09/09 05:50:22;;;;;;;9.05;5.18;;;;;;;16.72;64.45;99596.66;5110063;28;20028;-65
2021/09/09 05:52:47;;;;;;;6.88;5.22;;;;;;;16.74;64.28;99589.22;5111874;27;20039;-65
2021/09/09 05:55:14;;;;;;;7.07;5.28;;;;;;;16.81;64.38;99596.66;5111567;28;20506;-65
2021/09/09 05:57:39;;;;;;;10.32;5.30;;;;;;;16.87;63.78;99586.00;5123702;27;20118;-65
2021/09/09 06:00:06;;;;;;;12.32;5.45;;;;;;;17.06;63.75;99595.63;5132179;27;20119;-66
2021/09/09 06:02:31;;;;;;;10.90;5.47;;;;;;;17.13;63.18;99587.66;5125647;27;20039;-65
2021/09/09 06:04:59;;;;;;;10.25;5.03;;;;;;;17.26;63.20;99592.53;5112740;27;20465;-65
2021/09/09 06:07:26;;;;;;;8.25;5.15;;;;;;;17.31;62.81;99600.16;5132077;27;20087;-61
2021/09/09 06:09:52;;;;;;;9.88;5.07;;;;;;;17.34;62.76;99584.38;5132238;27;20027;-60
2021/09/09 06:12:19;;;;;;;10.65;5.25;;;;;;;17.41;62.74;99592.66;5130972;27;20034;-61
2021/09/09 06:14:44;;;;;;;8.68;5.25;;;;;;;17.36;62.49;99576.13;5131330;27;20042;-63
2021/09/09 06:17:10;;;;;;;8.95;5.32;;;;;;;17.48;62.64;99595.53;5132218;27;20460;-62
2021/09/09 06:19:36;;;;;;;7.47;5.22;;;;;;;17.56;62.54;99598.19;5131179;27;20027;-62
2021/09/09 06:22:01;;;;;;;8.98;4.85;;;;;;;17.69;62.32;99580.56;5113144;27;20121;-63
2021/09/09 06:24:27;;;;;;;9.85;5.63;;;;;;;17.87;61.65;99593.81;5129782;27;20035;-64
2021/09/09 06:26:53;;;;;;;9.48;5.47;;;;;;;17.98;61.35;99589.88;5131833;27;20493;-60
2021/09/09 06:29:18;;;;;;;14.80;5.22;;;;;;;18.13;61.15;99587.28;5132259;27;20129;-65
2021/09/09 06:31:43;;;;;;;7.85;4.95;;;;;;;18.30;60.13;99598.84;5131172;27;20444;-62
2021/09/09 06:34:09;;;;;;;7.68;5.28;;;;;;;18.26;59.91;99571.28;5129954;27;20435;-62
2021/09/09 06:36:34;;;;;;;15.43;5.18;;;;;;;18.34;59.82;99592.06;5131362;27;20539;-63
2021/09/09 06:39:01;;;;;;;10.30;5.55;;;;;;;18.29;60.17;99592.59;5132028;27;20376;-61
2021/09/09 06:41:27;;;;;;;15.00;5.82;;;;;;;18.29;60.01;99586.31;5128549;27;20062;-61
2021/09/09 06:43:52;;;;;;;8.65;4.90;;;;;;;18.36;59.87;99592.72;5111493;28;20063;-66
2021/09/09 06:46:18;;;;;;;9.98;5.47;;;;;;;18.31;59.85;99573.44;5111196;28;20028;-69
2021/09/09 06:48:43;;;;;;;14.88;6.22;;;;;;;18.44;59.87;99602.63;5111303;28;20126;-62
2021/09/09 06:51:09;;;;;;;12.65;5.80;;;;;;;18.45;59.93;99602.47;5110992;28;20047;-60
2021/09/09 06:53:34;;;;;;;9.63;4.85;;;;;;;18.50;59.67;99589.22;5110857;28;20036;-61
2021/09/09 06:56:00;;;;;;;12.27;4.97;;;;;;;18.67;59.28;99594.50;5124464;28;20051;-63
2021/09/09 06:58:25;;;;;;;9.75;4.80;;;;;;;18.73;59.10;99599.19;5131501;27;20030;-63
2021/09/09 07:00:51;;;;;;;11.93;5.03;;;;;;;18.66;59.64;99595.53;5131180;27;20464;-61
2021/09/09 07:03:17;;;;;;;14.45;5.38;;;;;;;18.58;59.99;99607.28;5130046;28;20472;-62
2021/09/09 07:05:43;;;;;;;11.77;5.60;;;;;;;18.53;60.27;99612.41;5122310;28;20059;-62
2021/09/09 07:08:09;;;;;;;6.30;4.97;;;;;;;18.40;61.36;99615.72;5113827;28;20027;-62
2021/09/09 07:10:34;;;;;;;9.68;4.82;;;;;;;18.36;61.66;99606.28;5110518;28;20503;-61
2021/09/09 07:13:00;;;;;;;8.70;5.25;;;;;;;18.36;61.13;99603.56;5110044;28;20376;-61
2021/09/09 07:15:26;;;;;;;9.25;5.20;;;;;;;18.39;61.46;99622.19;5111464;28;21218;-62
2021/09/09 07:17:51;;;;;;;10.95;4.97;;;;;;;18.45;61.13;99615.19;5110625;28;20035;-62
2021/09/09 07:20:17;;;;;;;7.18;5.20;;;;;;;18.57;60.62;99615.63;5110487;28;20034;-62
2021/09/09 07:22:42;;;;;;;9.93;5.32;;;;;;;18.78;60.20;99617.63;5128114;28;20035;-62
2021/09/09 07:25:09;;;;;;;10.93;5.20;;;;;;;19.04;59.05;99616.41;5129689;28;20141;-69
2021/09/09 07:27:35;;;;;;;12.95;4.85;;;;;;;19.38;57.94;99617.75;5129821;27;20477;-65
2021/09/09 07:30:00;;;;;;;9.48;5.00;;;;;;;19.48;57.40;99579.47;5130993;27;20038;-67
2021/09/09 07:32:26;;;;;;;11.02;5.20;;;;;;;19.99;56.36;99607.69;5130947;27;20457;-67
2021/09/09 07:34:51;;;;;;;8.15;5.03;;;;;;;20.40;54.84;99607.09;5129442;28;20035;-62
2021/09/09 07:37:17;;;;;;;6.80;4.80;;;;;;;20.95;53.81;99617.44;5127277;27;20038;-64
2021/09/09 07:39:43;;;;;;;9.02;5.30;;;;;;;21.50;52.11;99611.34;5128865;27;20042;-62
2021/09/09 07:42:08;;;;;;;5.32;4.65;;;;;;;21.82;50.79;99589.94;5119643;27;20568;-63
2021/09/09 07:44:34;;;;;;;7.28;4.82;;;;;;;22.18;49.84;99609.75;5112029;28;20058;-62
2021/09/09 07:47:01;;;;;;;13.00;5.15;;;;;;;22.33;49.27;99620.50;5112653;27;20098;-62
2021/09/09 07:49:27;;;;;;;8.02;4.80;;;;;;;22.34;49.42;99617.56;5112514;28;20433;-63
2021/09/09 07:51:53;;;;;;;8.88;4.72;;;;;;;22.40;49.28;99618.59;5111707;28;20141;-62
2021/09/09 07:54:19;;;;;;;9.15;5.18;;;;;;;22.55;48.88;99620.34;5110771;28;20020;-63
2021/09/09 07:56:44;;;;;;;11.05;4.72;;;;;;;22.59;48.88;99606.09;5114483;28;20118;-63
2021/09/09 07:59:10;;;;;;;6.88;4.97;;;;;;;22.69;48.28;99621.22;5113704;27;20023;-64
2021/09/09 08:01:36;;;;;;;6.63;4.60;;;;;;;22.62;48.59;99622.06;5120704;27;20063;-64
2021/09/09 08:04:01;;;;;;;7.38;4.45;;;;;;;22.49;49.35;99616.56;5134664;27;20034;-64
2021/09/09 08:06:28;;;;;;;9.98;4.55;;;;;;;22.46;49.02;99623.28;5134356;27;20037;-61
2021/09/09 08:08:53;;;;;;;7.47;3.83;;;;;;;22.35;49.20;99627.44;5132695;27;20027;-63
2021/09/09 08:11:19;;;;;;;7.30;3.70;;;;;;;22.17;49.29;99622.53;5133089;27;20074;-63
2021/09/09 08:13:44;;;;;;;9.98;4.13;;;;;;;21.92;49.88;99617.63;5134654;27;20030;-63
2021/09/09 08:16:10;;;;;;;6.50;3.47;;;;;;;21.90;50.54;99621.63;5115904;27;20023;-63
2021/09/09 08:18:35;;;;;;;9.43;4.28;;;;;;;22.02;49.97;99628.16;5129656;27;20499;-64
2021/09/09 08:21:01;;;;;;;5.25;3.33;;;;;;;22.06;49.68;99609.50;5113213;28;20381;-65
2021/09/09 08:23:26;;;;;;;5.50;3.63;;;;;;;22.05;49.66;99611.38;5118571;27;20429;-63
2021/09/09 08:25:52;;;;;;;6.00;3.58;;;;;;;21.99;49.68;99617.66;5133488;27;20480;-67
2021/09/09 08:28:17;;;;;;;6.07;3.53;;;;;;;22.01;49.59;99620.19;5130747;27;20031;-59
2021/09/09 08:30:47;;;;;;;10.00;4.03;;;;;;;22.14;49.76;99633.84;5113780;27;20028;-60
2021/09/09 08:33:12;;;;;;;4.10;3.05;;;;;;;22.22;48.52;99621.94;5111737;28;20028;-61
2021/09/09 08:35:40;;;;;;;3.75;2.72;;;;;;;22.40;48.49;99623.25;5111531;28;20035;-61
2021/09/09 08:38:06;;;;;;;6.03;3.03;;;;;;;22.61;48.07;99620.38;5111202;28;20114;-62
2021/09/09 08:40:32;;;;;;;7.50;3.25;;;;;;;22.84;47.03;99619.13;5112552;27;20123;-63
2021/09/09 08:42:57;;;;;;;4.22;2.78;;;;;;;22.93;46.74;99611.56;5113351;27;20034;-59
2021/09/09 08:45:23;;;;;;;7.32;3.47;;;;;;;23.14;46.80;99623.28;5129076;27;20023;-62
2021/09/09 08:47:50;;;;;;;7.55;3.00;;;;;;;23.25;46.02;99603.56;5132484;27;20115;-62
2021/09/09 08:50:16;;;;;;;5.32;2.95;;;;;;;23.54;45.59;99625.16;5128112;27;20461;-61
2021/09/09 08:52:41;;;;;;;5.40;2.50;;;;;;;23.76;45.35;99631.19;5113340;28;20032;-60
2021/09/09 08:55:07;;;;;;;3.33;3.03;;;;;;;23.83;44.82;99637.44;5112160;27;20039;-58
2021/09/09 08:57:33;;;;;;;7.20;3.17;;;;;;;23.65;45.16;99628.06;5113046;28;20062;-62
2021/09/09 08:59:59;;;;;;;5.38;3.35;;;;;;;23.27;45.85;99631.50;5112916;28;20032;-62
2021/09/09 09:02:25;;;;;;;6.40;2.70;;;;;;;22.79;46.70;99614.28;5131692;27;20031;-62
2021/09/09 09:05:08;;;;;;;5.55;2.40;;;;;;;22.86;47.47;99627.94;5124872;27;20393;-62
2021/09/09 09:07:34;;;;;;;3.00;2.67;;;;;;;22.74;47.27;99655.03;5126136;27;20036;-62
2021/09/09 09:10:03;;;;;;;3.08;2.50;;;;;;;22.68;47.43;99646.81;5112105;28;20031;-62
2021/09/09 09:12:43;;;;;;;3.67;2.67;;;;;;;22.66;47.67;99630.63;5113309;27;20059;-64
2021/09/09 09:15:18;;;;;;;3.40;2.65;;;;;;;22.85;47.50;99652.69;5111909;27;20139;-62
2021/09/09 09:18:06;;;;;;;5.03;2.67;;;;;;;23.16;47.59;99648.53;5112063;28;20042;-61
2021/09/09 09:20:52;;;;;;;3.58;2.88;;;;;;;23.32;46.81;99650.00;5109937;28;20031;-60
2021/09/09 09:23:23;;;;;;;2.90;2.38;;;;;;;23.25;46.34;99663.66;5111026;27;20054;-62
2021/09/09 09:25:52;;;;;;;6.93;2.65;;;;;;;23.05;47.03;99639.06;5110179;28;20477;-62
2021/09/09 09:28:38;;;;;;;3.92;2.78;;;;;;;23.23;47.16;99654.81;5110164;28;20088;-59
2021/09/09 09:31:12;;;;;;;3.63;2.55;;;;;;;22.93;47.19;99647.88;5109782;28;20039;-63
2021/09/09 09:33:50;;;;;;;5.03;2.92;;;;;;;23.01;47.39;99660.50;5111838;27;20088;-61
2021/09/09 09:36:21;;;;;;;5.22;3.20;;;;;;;22.79;47.54;99655.22;5111967;28;20039;-64
2021/09/09 09:38:49;;;;;;;5.00;2.67;;;;;;;22.71;47.28;99652.72;5111724;28;20031;-62
2021/09/09 09:41:18;;;;;;;5.90;2.95;;;;;;;22.73;47.96;99647.88;5111884;28;20023;-64
2021/09/09 09:43:59;;;;;;;6.75;2.53;;;;;;;22.75;47.82;99651.25;5113230;27;20035;-60
2021/09/09 09:46:29;;;;;;;4.25;2.60;;;;;;;22.63;47.46;99639.25;5111736;28;20059;-64
2021/09/09 09:48:55;;;;;;;4.93;3.00;;;;;;;22.46;48.20;99645.13;5111412;28;20043;-60
2021/09/09 09:51:41;;;;;;;3.85;2.60;;;;;;;22.54;48.59;99654.13;5110438;28;20035;-63
2021/09/09 09:54:08;;;;;;;5.18;3.10;;;;;;;22.28;49.06;99648.38;5112028;27;20023;-62
2021/09/09 09:56:35;;;;;;;3.15;2.50;;;;;;;22.10;49.18;99654.41;5120836;27;20042;-63
2021/09/09 09:59:01;;;;;;;5.63;2.72;;;;;;;21.84;49.57;99645.06;5131270;27;20373;-60
2021/09/09 10:01:28;;;;;;;3.47;2.70;;;;;;;21.63;50.08;99654.16;5132420;27;20027;-61
2021/09/09 10:03:56;;;;;;;6.90;2.40;;;;;;;21.32;50.87;99656.28;5125567;27;20020;-63
2021/09/09 10:06:23;;;;;;;5.47;2.90;;;;;;;21.03;51.92;99635.53;5111090;28;20495;-62
2021/09/09 10:08:48;;;;;;;6.03;3.00;;;;;;;21.10;52.10;99657.34;5119240;27;20512;-63
2021/09/09 10:11:14;;;;;;;6.35;2.78;;;;;;;21.08;52.09;99643.94;5131405;27;20059;-63
2021/09/09 10:13:41;;;;;;;4.22;3.00;;;;;;;21.11;52.54;99659.03;5129799;27;20030;-59
2021/09/09 10:16:07;;;;;;;4.15;2.88;;;;;;;20.90;53.08;99663.47;5114810;27;20059;-64
2021/09/09 10:18:33;;;;;;;5.28;2.95;;;;;;;20.70;53.49;99660.53;5114863;27;20035;-61
2021/09/09 10:21:02;;;;;;;6.20;3.00;;;;;;;20.51;53.70;99658.28;5111560;28;20434;-62
2021/09/09 10:23:28;;;;;;;4.40;3.30;;;;;;;20.36;54.33;99636.53;5111039;28;20028;-61
2021/09/09 10:25:57;;;;;;;5.78;2.97;;;;;;;20.55;54.13;99664.16;5112209;28;20396;-62
2021/09/09 10:28:40;;;;;;;5.55;3.30;;;;;;;20.92;53.69;99667.69;5128658;27;20038;-63
2021/09/09 10:31:07;;;;;;;5.70;3.05;;;;;;;21.08;53.43;99671.16;5113660;27;20054;-61
2021/09/09 10:33:34;;;;;;;8.02;3.08;;;;;;;21.28;52.11;99668.59;5131278;27;20483;-64
2021/09/09 10:36:01;;;;;;;7.32;3.17;;;;;;;21.49;52.24;99669.59;5130633;27;20045;-61
2021/09/09 10:38:29;;;;;;;3.75;3.03;;;;;;;21.58;51.22;99659.34;5131618;27;20480;-60
2021/09/09 10:40:56;;;;;;;6.43;3.10;;;;;;;21.70;51.11;99667.84;5132186;27;20055;-64
2021/09/09 10:43:24;;;;;;;5.10;2.75;;;;;;;21.92;50.79;99666.69;5112002;27;20118;-64
2021/09/09 10:46:00;;;;;;;5.15;3.40;;;;;;;22.22;50.41;99660.97;5112512;28;20104;-61
2021/09/09 10:48:28;;;;;;;6.05;3.13;;;;;;;22.39;49.70;99660.56;5111016;28;20547;-61
2021/09/09 10:51:11;;;;;;;7.82;3.00;;;;;;;22.64;48.88;99665.47;5111170;28;20039;-60
2021/09/09 10:53:54;;;;;;;8.55;3.28;;;;;;;22.68;48.57;99663.19;5110303;28;20135;-59
2021/09/09 10:56:23;;;;;;;5.82;2.70;;;;;;;22.83;47.93;99668.44;5110224;28;20365;-65
2021/09/09 10:59:19;;;;;;;8.50;3.30;;;;;;;23.12;48.13;99663.63;5110073;28;20047;-60
2021/09/09 11:01:48;;;;;;;3.10;2.63;;;;;;;22.99;47.58;99662.59;5109528;28;20044;-61
2021/09/09 11:04:35;;;;;;;5.28;3.25;;;;;;;23.17;47.19;99664.69;5110577;28;20024;-61
2021/09/09 11:07:01;;;;;;;4.57;2.58;;;;;;;23.01;47.36;99674.13;5111546;28;20023;-62
2021/09/09 11:09:31;;;;;;;5.43;2.72;;;;;;;22.88;47.63;99674.13;5110695;28;20031;-62
2021/09/09 11:12:04;;;;;;;5.47;2.95;;;;;;;23.06;47.87;99676.25;5110386;28;20115;-62
2021/09/09 11:14:31;;;;;;;4.68;2.83;;;;;;;23.02;47.71;99675.81;5111074;28;20032;-60
2021/09/09 11:16:57;;;;;;;8.48;3.22;;;;;;;22.90;47.85;99677.47;5109364;27;20064;-62
2021/09/09 11:19:23;;;;;;;5.40;3.00;;;;;;;22.87;47.97;99677.91;5110612;28;20035;-62
2021/09/09 11:21:51;;;;;;;3.38;2.55;;;;;;;22.74;47.94;99679.56;5113570;28;20027;-61
2021/09/09 11:24:17;;;;;;;4.78;3.13;;;;;;;22.58;48.84;99680.81;5112798;28;20039;-61
2021/09/09 11:26:48;;;;;;;9.40;3.22;;;;;;;22.59;49.04;99682.50;5112418;28;20551;-62
2021/09/09 11:29:15;;;;;;;6.40;2.78;;;;;;;22.59;48.95;99677.03;5114266;27;20054;-61